createdAt,value
2024-02-24T00:02:06.718Z,98101.04
2024-02-24T00:04:37.410Z,98095.04
2024-02-24T00:07:06.844Z,98092.20
2024-02-24T00:09:37.387Z,98083.64
2024-02-24T00:12:07.305Z,98081.24
2024-02-24T00:14:38.243Z,98081.23
2024-02-24T00:17:07.542Z,98075.84
2024-02-24T00:19:38.159Z,98073.29
2024-02-24T00:22:07.462Z,98064.61
2024-02-24T00:24:38.025Z,98063.96
2024-02-24T00:27:07.397Z,98061.81
2024-02-24T00:29:38.101Z,98060.52
2024-02-24T00:32:08.050Z,98063.27
2024-02-24T00:34:38.473Z,98064.73
2024-02-24T00:37:08.180Z,98062.37
2024-02-24T00:39:38.904Z,98060.45
2024-02-24T00:42:10.881Z,98060.56
2024-02-24T00:44:41.507Z,98066.67
2024-02-24T00:47:10.913Z,98068.84
2024-02-24T00:49:41.528Z,98065.71
2024-02-24T00:52:10.840Z,98062.70
2024-02-24T00:54:41.881Z,98050.77
2024-02-24T00:57:11.173Z,98049.77
2024-02-24T00:59:41.963Z,98046.25
2024-02-24T01:02:11.463Z,98037.95
2024-02-24T01:04:42.147Z,98034.11
2024-02-24T01:07:14.100Z,98034.27
2024-02-24T01:09:44.640Z,98041.70
2024-02-24T01:12:14.259Z,98044.77
2024-02-24T01:14:45.423Z,98047.06
2024-02-24T01:17:15.304Z,98047.49
2024-02-24T01:19:45.819Z,98052.05
2024-02-24T01:22:15.234Z,98051.28
2024-02-24T01:24:45.757Z,98045.83
2024-02-24T01:27:15.160Z,98037.86
2024-02-24T01:29:45.931Z,98037.83
2024-02-24T01:32:15.419Z,98036.54
2024-02-24T01:34:47.089Z,98037.02
2024-02-24T01:37:16.471Z,98034.49
2024-02-24T01:39:47.079Z,98040.05
2024-02-24T01:42:16.381Z,98038.77
2024-02-24T01:44:47.214Z,98039.89
2024-02-24T01:47:18.183Z,98038.85
2024-02-24T01:49:48.791Z,98041.47
2024-02-24T01:52:18.096Z,98043.20
2024-02-24T01:54:48.722Z,98042.76
2024-02-24T01:57:18.329Z,98044.23
2024-02-24T01:59:49.269Z,98044.86
2024-02-24T02:02:18.627Z,98041.35
2024-02-24T02:04:49.246Z,98036.23
2024-02-24T02:07:18.696Z,98037.15
2024-02-24T02:09:56.665Z,98040.33
2024-02-24T02:12:28.015Z,98046.80
2024-02-24T02:14:57.350Z,98048.50
2024-02-24T02:17:28.284Z,98044.18
2024-02-24T02:20:04.372Z,98051.17
2024-02-24T02:22:35.290Z,98050.53
2024-02-24T02:25:05.012Z,98046.30
2024-02-24T02:27:35.644Z,98046.34
2024-02-24T02:30:05.768Z,98044.77
2024-02-24T02:32:36.580Z,98050.66
2024-02-24T02:35:07.838Z,98053.78
2024-02-24T02:37:38.969Z,98046.61
2024-02-24T02:40:09.057Z,98044.85
2024-02-24T02:42:39.627Z,98041.77
2024-02-24T02:45:09.225Z,98037.80
2024-02-24T02:47:39.959Z,98042.40
2024-02-24T02:50:09.944Z,98042.10
2024-02-24T02:52:40.505Z,98048.61
2024-02-24T02:55:10.225Z,98051.48
2024-02-24T02:57:40.740Z,98053.73
2024-02-24T03:00:10.751Z,98054.41
2024-02-24T03:02:41.439Z,98055.45
2024-02-24T03:05:10.883Z,98065.13
2024-02-24T03:07:41.528Z,98072.80
2024-02-24T03:10:11.260Z,98073.65
2024-02-24T03:12:42.206Z,98082.98
2024-02-24T03:15:11.819Z,98088.25
2024-02-24T03:17:42.485Z,98088.25
2024-02-24T03:20:12.642Z,98085.67
2024-02-24T03:22:43.882Z,98082.67
2024-02-24T03:25:13.640Z,98075.33
2024-02-24T03:27:44.329Z,98073.50
2024-02-24T03:30:14.099Z,98075.57
2024-02-24T03:32:44.723Z,98077.21
2024-02-24T03:35:14.295Z,98078.16
2024-02-24T03:37:44.894Z,98080.38
2024-02-24T03:40:14.728Z,98082.63
2024-02-24T03:42:45.243Z,98084.92
2024-02-24T03:45:14.744Z,98086.84
2024-02-24T03:47:45.401Z,98086.74
2024-02-24T03:50:15.004Z,98081.91
2024-02-24T03:52:45.814Z,98083.08
2024-02-24T03:55:15.117Z,98090.59
2024-02-24T03:57:45.752Z,98095.91
2024-02-24T04:00:15.764Z,98098.77
2024-02-24T04:02:46.437Z,98100.41
2024-02-24T04:05:15.943Z,98107.55
2024-02-24T04:07:46.626Z,98114.95
2024-02-24T04:10:16.036Z,98127.58
2024-02-24T04:12:46.675Z,98131.23
2024-02-24T04:15:20.769Z,98136.15
2024-02-24T04:17:51.541Z,98145.00
2024-02-24T04:20:21.574Z,98146.02
2024-02-24T04:22:52.268Z,98149.96
2024-02-24T04:25:21.559Z,98168.70
2024-02-24T04:27:52.286Z,98175.79
2024-02-24T04:30:21.600Z,98187.77
2024-02-24T04:32:52.345Z,98196.57
2024-02-24T04:35:21.872Z,98203.20
2024-02-24T04:37:52.568Z,98200.38
2024-02-24T04:40:21.871Z,98197.89
2024-02-24T04:42:52.506Z,98209.30
2024-02-24T04:45:21.755Z,98218.94
2024-02-24T04:47:52.805Z,98224.86
2024-02-24T04:50:22.144Z,98236.36
2024-02-24T04:52:53.552Z,98247.90
2024-02-24T04:55:22.949Z,98249.77
2024-02-24T04:57:53.524Z,98263.74
2024-02-24T05:00:22.842Z,98286.11
2024-02-24T05:02:54.317Z,98295.73
2024-02-24T05:05:24.021Z,98300.71
2024-02-24T05:07:54.886Z,98313.80
2024-02-24T05:10:24.420Z,98321.84
2024-02-24T05:12:56.552Z,98325.96
2024-02-24T05:15:26.602Z,98338.03
2024-02-24T05:17:57.539Z,98342.48
2024-02-24T05:20:27.057Z,98343.64
2024-02-24T05:22:57.572Z,98348.31
2024-02-24T05:25:26.870Z,98352.89
2024-02-24T05:27:57.809Z,98354.25
2024-02-24T05:30:27.224Z,98358.01
2024-02-24T05:32:59.067Z,98358.80
2024-02-24T05:35:28.693Z,98363.55
2024-02-24T05:37:59.518Z,98368.05
2024-02-24T05:40:28.913Z,98366.70
2024-02-24T05:42:59.441Z,98380.00
2024-02-24T05:45:28.745Z,98387.06
2024-02-24T05:47:59.527Z,98396.17
2024-02-24T05:50:29.098Z,98410.14
2024-02-24T05:52:59.829Z,98423.46
2024-02-24T05:55:29.117Z,98424.11
2024-02-24T05:57:59.953Z,98431.85
2024-02-24T06:00:29.770Z,98432.19
2024-02-24T06:03:00.757Z,98430.89
2024-02-24T06:05:30.662Z,98434.41
2024-02-24T06:08:02.179Z,98436.70
2024-02-24T06:10:31.675Z,98441.11
2024-02-24T06:13:02.200Z,98450.19
2024-02-24T06:15:31.923Z,98460.93
2024-02-24T06:18:02.821Z,98471.05
2024-02-24T06:20:32.460Z,98482.30
2024-02-24T06:23:02.987Z,98487.26
2024-02-24T06:25:32.387Z,98478.42
2024-02-24T06:28:03.737Z,98480.34
2024-02-24T06:30:33.035Z,98501.36
2024-02-24T06:33:03.694Z,98518.32
2024-02-24T06:35:33.520Z,98528.27
2024-02-24T06:38:04.623Z,98525.90
2024-02-24T06:40:41.319Z,98524.39
2024-02-24T06:43:17.159Z,98519.92
2024-02-24T06:45:46.853Z,98511.42
2024-02-24T06:48:17.664Z,98510.75
2024-02-24T06:50:47.551Z,98509.77
2024-02-24T06:53:18.119Z,98518.44
2024-02-24T06:55:47.396Z,98520.88
2024-02-24T06:58:17.979Z,98534.16
2024-02-24T07:00:47.364Z,98548.04
2024-02-24T07:03:20.260Z,98555.01
2024-02-24T07:05:49.802Z,98555.58
2024-02-24T07:08:20.496Z,98565.15
2024-02-24T07:10:50.112Z,98562.91
2024-02-24T07:13:20.825Z,98562.08
2024-02-24T07:15:50.268Z,98566.00
2024-02-24T07:18:20.808Z,98570.81
2024-02-24T07:20:51.574Z,98576.98
2024-02-24T07:23:22.248Z,98583.30
2024-02-24T07:25:51.624Z,98582.22
2024-02-24T07:28:22.254Z,98584.23
2024-02-24T07:30:51.855Z,98585.84
2024-02-24T07:33:23.295Z,98586.85
2024-02-24T07:35:52.790Z,98590.02
2024-02-24T07:38:23.449Z,98590.92
2024-02-24T07:40:52.760Z,98595.54
2024-02-24T07:43:23.686Z,98591.27
2024-02-24T07:45:53.090Z,98588.89
2024-02-24T07:48:23.747Z,98595.97
2024-02-24T07:50:53.412Z,98599.29
2024-02-24T07:53:24.568Z,98604.74
2024-02-24T07:55:54.135Z,98616.52
2024-02-24T07:58:24.808Z,98620.64
2024-02-24T08:00:54.420Z,98627.59
2024-02-24T08:03:25.159Z,98632.53
2024-02-24T08:05:54.623Z,98630.88
2024-02-24T08:08:25.389Z,98634.34
2024-02-24T08:10:55.366Z,98636.86
2024-02-24T08:13:27.063Z,98644.23
2024-02-24T08:15:56.456Z,98646.06
2024-02-24T08:18:27.223Z,98644.30
2024-02-24T08:20:56.736Z,98646.88
2024-02-24T08:23:27.691Z,98654.17
2024-02-24T08:25:58.934Z,98662.48
2024-02-24T08:28:30.031Z,98674.94
2024-02-24T08:31:02.605Z,98679.94
2024-02-24T08:33:33.491Z,98675.55
2024-02-24T08:36:03.066Z,98675.64
2024-02-24T08:38:33.727Z,98677.65
2024-02-24T08:41:03.194Z,98682.39
2024-02-24T08:43:33.816Z,98688.80
2024-02-24T08:46:04.345Z,98685.92
2024-02-24T08:48:35.628Z,98691.84
2024-02-24T08:51:08.097Z,98692.31
2024-02-24T08:53:39.124Z,98692.36
2024-02-24T08:56:08.511Z,98697.98
2024-02-24T08:58:39.236Z,98702.47
2024-02-24T09:01:08.675Z,98707.83
2024-02-24T09:03:39.513Z,98721.65
2024-02-24T09:06:09.113Z,98728.45
2024-02-24T09:08:39.864Z,98734.37
2024-02-24T09:11:09.308Z,98739.71
2024-02-24T09:13:40.364Z,98736.04
2024-02-24T09:16:10.071Z,98740.34
2024-02-24T09:18:40.682Z,98745.09
2024-02-24T09:21:12.867Z,98748.05
2024-02-24T09:23:43.921Z,98756.19
2024-02-24T09:26:13.394Z,98761.27
2024-02-24T09:28:44.144Z,98760.25
2024-02-24T09:31:13.446Z,98764.05
2024-02-24T09:33:44.372Z,98769.29
2024-02-24T09:36:13.906Z,98776.69
2024-02-24T09:38:44.433Z,98779.10
2024-02-24T09:41:13.741Z,98781.36
2024-02-24T09:43:44.450Z,98784.06
2024-02-24T09:46:13.764Z,98791.67
2024-02-24T09:48:46.274Z,98796.61
2024-02-24T09:51:15.732Z,98801.05
2024-02-24T09:53:46.607Z,98804.97
2024-02-24T09:56:19.488Z,98812.56
2024-02-24T09:58:50.179Z,98813.64
2024-02-24T10:01:19.623Z,98820.23
2024-02-24T10:03:50.480Z,98824.91
2024-02-24T10:06:20.153Z,98830.25
2024-02-24T10:08:50.956Z,98834.11
2024-02-24T10:11:20.441Z,98835.41
2024-02-24T10:13:51.106Z,98835.14
2024-02-24T10:16:21.315Z,98837.32
2024-02-24T10:18:51.962Z,98845.48
2024-02-24T10:21:21.571Z,98846.73
2024-02-24T10:23:52.248Z,98847.05
2024-02-24T10:26:21.727Z,98846.41
2024-02-24T10:28:52.435Z,98851.84
2024-02-24T10:31:28.570Z,98853.05
2024-02-24T10:33:59.424Z,98853.39
2024-02-24T10:36:29.749Z,98860.17
2024-02-24T10:39:00.324Z,98858.81
2024-02-24T10:41:31.348Z,98855.80
2024-02-24T10:44:10.628Z,98853.17
2024-02-24T10:46:50.992Z,98858.77
2024-02-24T10:49:20.623Z,98851.54
2024-02-24T10:51:51.487Z,98854.69
2024-02-24T10:54:22.938Z,98853.95
2024-02-24T10:56:58.910Z,98854.63
2024-02-24T10:59:30.552Z,98852.27
2024-02-24T11:02:04.220Z,98854.93
2024-02-24T11:04:38.374Z,98857.27
2024-02-24T11:07:08.940Z,98858.20
2024-02-24T11:09:40.737Z,98863.05
2024-02-24T11:12:13.210Z,98867.84
2024-02-24T11:14:45.754Z,98877.50
2024-02-24T11:17:54.521Z,98886.98
2024-02-24T11:20:40.964Z,98885.49
2024-02-24T11:23:33.253Z,98886.48
2024-02-24T11:26:22.844Z,98891.19
2024-02-24T11:29:07.374Z,98892.39
2024-02-24T11:31:38.213Z,98894.93
2024-02-24T11:34:12.445Z,98894.04
2024-02-24T11:36:43.257Z,98898.16
2024-02-24T11:39:18.603Z,98899.18
2024-02-24T11:41:49.496Z,98899.77
2024-02-24T11:44:18.847Z,98903.55
2024-02-24T11:46:49.833Z,98901.48
2024-02-24T11:49:19.210Z,98899.17
2024-02-24T11:51:49.920Z,98903.06
2024-02-24T11:54:19.211Z,98909.17
2024-02-24T11:56:49.998Z,98913.84
2024-02-24T11:59:19.668Z,98918.11
2024-02-24T12:01:50.455Z,98915.05
2024-02-24T12:04:24.644Z,98915.27
2024-02-24T12:06:55.519Z,98912.20
2024-02-24T12:09:25.247Z,98916.08
2024-02-24T12:11:56.948Z,98917.23
2024-02-24T12:14:30.741Z,98917.55
2024-02-24T12:17:01.433Z,98922.23
2024-02-24T12:19:36.784Z,98930.82
2024-02-24T12:22:10.590Z,98934.13
2024-02-24T12:24:40.838Z,98934.44
2024-02-24T12:27:11.670Z,98936.76
2024-02-24T12:29:41.082Z,98934.33
2024-02-24T12:32:11.686Z,98939.38
2024-02-24T12:34:41.012Z,98938.69
2024-02-24T12:37:11.812Z,98937.45
2024-02-24T12:39:42.449Z,98940.02
2024-02-24T12:42:13.072Z,98940.56
2024-02-24T12:44:43.008Z,98939.69
2024-02-24T12:47:13.637Z,98943.61
2024-02-24T12:49:42.955Z,98946.27
2024-02-24T12:52:13.856Z,98948.52
2024-02-24T12:54:43.157Z,98946.26
2024-02-24T12:57:13.891Z,98946.08
2024-02-24T12:59:43.665Z,98949.60
2024-02-24T13:02:14.368Z,98951.07
2024-02-24T13:04:43.741Z,98947.71
2024-02-24T13:07:14.260Z,98948.77
2024-02-24T13:09:43.557Z,98950.48
2024-02-24T13:12:14.348Z,98947.39
2024-02-24T13:14:44.444Z,98949.84
2024-02-24T13:17:16.061Z,98957.88
2024-02-24T13:19:45.411Z,98961.79
2024-02-24T13:22:16.409Z,98965.85
2024-02-24T13:24:46.179Z,98972.06
2024-02-24T13:27:16.748Z,98970.35
2024-02-24T13:29:46.501Z,98974.17
2024-02-24T13:32:17.104Z,98973.88
2024-02-24T13:34:46.641Z,98975.45
2024-02-24T13:37:17.917Z,98980.89
2024-02-24T13:39:48.250Z,98983.52
2024-02-24T13:42:18.790Z,98988.05
2024-02-24T13:44:48.140Z,98989.64
2024-02-24T13:47:19.451Z,98998.45
2024-02-24T13:49:48.833Z,99005.85
2024-02-24T13:52:19.484Z,99008.36
2024-02-24T13:54:48.769Z,99007.17
2024-02-24T13:57:19.402Z,99007.30
2024-02-24T13:59:48.867Z,99010.14
2024-02-24T14:02:19.690Z,99008.50
2024-02-24T14:04:49.144Z,99010.75
2024-02-24T14:07:20.293Z,99014.99
2024-02-24T14:09:49.595Z,99015.33
2024-02-24T14:12:20.270Z,99017.34
2024-02-24T14:14:49.732Z,99019.77
2024-02-24T14:17:20.695Z,99019.23
2024-02-24T14:19:50.044Z,99020.88
2024-02-24T14:22:21.112Z,99023.85
2024-02-24T14:24:50.404Z,99025.76
2024-02-24T14:27:21.050Z,99025.27
2024-02-24T14:29:50.462Z,99026.48
2024-02-24T14:32:21.141Z,99028.73
2024-02-24T14:34:51.768Z,99030.54
2024-02-24T14:37:22.716Z,99033.95
2024-02-24T14:39:52.361Z,99032.73
2024-02-24T14:42:22.980Z,99038.53
2024-02-24T14:44:52.756Z,99043.27
2024-02-24T14:47:25.736Z,99048.67
2024-02-24T14:49:55.219Z,99052.19
2024-02-24T14:52:26.234Z,99050.84
2024-02-24T14:54:55.617Z,99049.80
2024-02-24T14:57:26.146Z,99055.21
2024-02-24T14:59:55.697Z,99060.48
2024-02-24T15:02:35.973Z,99057.09
2024-02-24T15:05:17.214Z,99059.55
2024-02-24T15:07:46.492Z,99060.98
2024-02-24T15:10:17.459Z,99062.15
2024-02-24T15:12:48.009Z,99064.36
2024-02-24T15:15:19.884Z,99069.09
2024-02-24T15:17:49.855Z,99070.02
2024-02-24T15:20:20.754Z,99075.75
2024-02-24T15:22:51.623Z,99077.58
2024-02-24T15:25:22.615Z,99080.00
2024-02-24T15:27:52.255Z,99083.33
2024-02-24T15:30:23.268Z,99087.39
2024-02-24T15:32:57.985Z,99090.39
2024-02-24T15:35:28.683Z,99097.86
2024-02-24T15:37:59.304Z,99099.52
2024-02-24T15:40:33.596Z,99105.87
2024-02-24T15:43:06.282Z,99105.17
2024-02-24T15:45:35.793Z,99116.95
2024-02-24T15:48:07.329Z,99125.16
2024-02-24T15:50:37.030Z,99130.05
2024-02-24T15:53:07.855Z,99131.82
2024-02-24T15:55:37.366Z,99133.10
2024-02-24T15:58:08.022Z,99135.01
2024-02-24T16:00:38.237Z,99138.67
2024-02-24T16:03:08.871Z,99139.14
2024-02-24T16:05:38.549Z,99141.63
2024-02-24T16:08:11.768Z,99145.08
2024-02-24T16:10:44.168Z,99144.64
2024-02-24T16:13:15.466Z,99150.27
2024-02-24T16:15:45.308Z,99153.27
2024-02-24T16:18:16.828Z,99153.64
2024-02-24T16:20:46.085Z,99153.77
2024-02-24T16:23:17.666Z,99151.53
2024-02-24T16:25:47.115Z,99157.36
2024-02-24T16:28:18.275Z,99151.06
2024-02-24T16:30:47.702Z,99149.34
2024-02-24T16:33:18.407Z,99147.27
2024-02-24T16:35:47.931Z,99152.11
2024-02-24T16:38:18.972Z,99152.65
2024-02-24T16:40:48.963Z,99153.82
2024-02-24T16:43:19.476Z,99153.88
2024-02-24T16:45:48.899Z,99158.02
2024-02-24T16:48:19.827Z,99159.46
2024-02-24T16:50:49.251Z,99161.69
2024-02-24T16:53:20.009Z,99174.15
2024-02-24T16:55:49.362Z,99178.48
2024-02-24T16:58:19.896Z,99180.23
2024-02-24T17:00:49.616Z,99181.55
2024-02-24T17:03:20.172Z,99188.53
2024-02-24T17:05:50.764Z,99192.90
2024-02-24T17:08:21.651Z,99194.83
2024-02-24T17:10:52.360Z,99195.67
2024-02-24T17:13:23.140Z,99200.89
2024-02-24T17:15:52.568Z,99201.80
2024-02-24T17:18:30.903Z,99205.75
2024-02-24T17:21:06.486Z,99211.27
2024-02-24T17:23:38.762Z,99220.23
2024-02-24T17:26:10.486Z,99217.61
2024-02-24T17:28:39.856Z,99220.36
2024-02-24T17:31:14.601Z,99225.46
2024-02-24T17:33:47.614Z,99227.67
2024-02-24T17:36:17.650Z,99231.09
2024-02-24T17:38:48.558Z,99233.27
2024-02-24T17:41:20.287Z,99227.25
2024-02-24T17:43:51.113Z,99225.67
2024-02-24T17:46:20.417Z,99228.79
2024-02-24T17:48:51.743Z,99232.70
2024-02-24T17:51:21.261Z,99234.84
2024-02-24T17:53:51.811Z,99237.66
2024-02-24T17:56:21.142Z,99237.67
2024-02-24T17:58:51.837Z,99238.80
2024-02-24T18:01:21.153Z,99243.71
2024-02-24T18:03:51.809Z,99247.92
2024-02-24T18:06:21.307Z,99241.73
2024-02-24T18:08:52.546Z,99248.94
2024-02-24T18:11:24.117Z,99248.89
2024-02-24T18:13:54.900Z,99250.78
2024-02-24T18:16:24.359Z,99251.38
2024-02-24T18:18:55.487Z,99258.34
2024-02-24T18:21:25.052Z,99262.18
2024-02-24T18:23:55.559Z,99258.91
2024-02-24T18:26:25.117Z,99260.20
2024-02-24T18:29:02.475Z,99255.75
2024-02-24T18:31:33.313Z,99255.25
2024-02-24T18:34:02.800Z,99254.77
2024-02-24T18:36:33.745Z,99255.41
2024-02-24T18:39:03.231Z,99258.75
2024-02-24T18:41:34.713Z,99255.48
2024-02-24T18:44:04.710Z,99253.29
2024-02-24T18:46:35.240Z,99256.70
2024-02-24T18:49:04.848Z,99250.61
2024-02-24T18:51:35.591Z,99254.02
2024-02-24T18:54:05.210Z,99250.70
2024-02-24T18:56:36.051Z,99251.85
2024-02-24T18:59:06.778Z,99246.84
2024-02-24T19:01:37.320Z,99245.77
2024-02-24T19:04:06.658Z,99250.92
2024-02-24T19:06:37.461Z,99252.48
2024-02-24T19:09:07.576Z,99251.36
2024-02-24T19:11:38.642Z,99253.73
2024-02-24T19:14:08.083Z,99252.98
2024-02-24T19:16:39.419Z,99252.31
2024-02-24T19:19:09.046Z,99247.03
2024-02-24T19:21:39.982Z,99246.85
2024-02-24T19:24:14.957Z,99243.48
2024-02-24T19:26:45.948Z,99240.25
2024-02-24T19:29:15.776Z,99240.21
2024-02-24T19:31:46.822Z,99236.08
2024-02-24T19:34:17.859Z,99239.38
2024-02-24T19:36:48.592Z,99242.15
2024-02-24T19:39:19.429Z,99245.32
2024-02-24T19:41:50.489Z,99248.84
2024-02-24T19:44:21.705Z,99244.32
2024-02-24T19:46:52.634Z,99246.42
2024-02-24T19:49:22.353Z,99248.93
2024-02-24T19:51:53.036Z,99248.19
2024-02-24T19:54:22.791Z,99252.12
2024-02-24T19:56:53.521Z,99255.73
2024-02-24T19:59:22.979Z,99260.99
2024-02-24T20:01:53.860Z,99262.23
2024-02-24T20:04:23.343Z,99265.86
2024-02-24T20:06:54.077Z,99265.00
2024-02-24T20:09:24.101Z,99270.65
2024-02-24T20:11:54.844Z,99268.73
2024-02-24T20:14:24.700Z,99267.71
2024-02-24T20:16:55.300Z,99264.10
2024-02-24T20:19:25.104Z,99270.14
2024-02-24T20:21:55.843Z,99270.89
2024-02-24T20:24:25.139Z,99267.09
2024-02-24T20:26:55.813Z,99269.86
2024-02-24T20:29:25.329Z,99264.60
2024-02-24T20:31:56.016Z,99264.66
2024-02-24T20:34:25.873Z,99266.13
2024-02-24T20:36:56.561Z,99265.09
2024-02-24T20:39:25.854Z,99268.62
2024-02-24T20:41:56.757Z,99268.88
2024-02-24T20:44:26.319Z,99272.12
2024-02-24T20:46:56.938Z,99277.80
2024-02-24T20:49:26.661Z,99280.89
2024-02-24T20:51:59.758Z,99277.58
2024-02-24T20:54:36.237Z,99272.52
2024-02-24T20:57:08.714Z,99269.29
2024-02-24T20:59:38.287Z,99272.37
2024-02-24T21:02:08.950Z,99273.17
2024-02-24T21:04:39.821Z,99273.43
2024-02-24T21:07:10.491Z,99273.66
2024-02-24T21:09:39.773Z,99269.05
2024-02-24T21:12:12.113Z,99269.45
2024-02-24T21:14:41.707Z,99263.95
2024-02-24T21:17:12.920Z,99263.80
2024-02-24T21:19:42.266Z,99257.31
2024-02-24T21:22:12.858Z,99258.23
2024-02-24T21:24:42.235Z,99259.04
2024-02-24T21:27:12.988Z,99254.88
2024-02-24T21:29:42.507Z,99256.75
2024-02-24T21:32:13.101Z,99260.20
2024-02-24T21:34:42.516Z,99258.80
2024-02-24T21:37:13.588Z,99259.36
2024-02-24T21:39:43.062Z,99255.70
2024-02-24T21:42:15.076Z,99256.69
2024-02-24T21:44:45.280Z,99254.02
2024-02-24T21:47:15.854Z,99259.36
2024-02-24T21:49:45.293Z,99257.37
2024-02-24T21:52:15.892Z,99258.98
2024-02-24T21:54:45.203Z,99256.38
2024-02-24T21:57:16.270Z,99252.20
2024-02-24T21:59:45.659Z,99250.22
2024-02-24T22:02:16.207Z,99245.22
2024-02-24T22:04:45.683Z,99241.16
2024-02-24T22:07:18.869Z,99243.95
2024-02-24T22:09:48.446Z,99242.97
2024-02-24T22:12:19.170Z,99239.92
2024-02-24T22:14:48.556Z,99235.94
2024-02-24T22:17:19.902Z,99235.23
2024-02-24T22:19:49.686Z,99237.14
2024-02-24T22:22:20.397Z,99235.56
2024-02-24T22:24:49.690Z,99233.52
2024-02-24T22:27:20.290Z,99234.33
2024-02-24T22:29:55.127Z,99233.07
2024-02-24T22:32:33.576Z,99233.13
2024-02-24T22:35:03.098Z,99235.46
2024-02-24T22:37:34.116Z,99237.27
2024-02-24T22:40:06.786Z,99242.48
2024-02-24T22:42:37.518Z,99244.83
2024-02-24T22:45:08.463Z,99246.69
2024-02-24T22:47:39.164Z,99249.92
2024-02-24T22:50:09.017Z,99248.88
2024-02-24T22:52:39.564Z,99249.19
2024-02-24T22:55:09.961Z,99250.83
2024-02-24T22:57:40.616Z,99250.31
2024-02-24T23:00:14.812Z,99248.77
2024-02-24T23:02:45.683Z,99248.11
2024-02-24T23:05:14.992Z,99245.00
2024-02-24T23:07:45.588Z,99244.80
2024-02-24T23:10:14.876Z,99240.02
2024-02-24T23:12:45.586Z,99239.80
2024-02-24T23:15:15.073Z,99241.80
2024-02-24T23:17:46.139Z,99243.88
2024-02-24T23:20:15.348Z,99243.09
2024-02-24T23:22:46.289Z,99239.02
2024-02-24T23:25:19.684Z,99241.41
2024-02-24T23:27:50.216Z,99241.00
2024-02-24T23:30:20.128Z,99239.64
2024-02-24T23:32:50.839Z,99244.50
2024-02-24T23:35:20.948Z,99244.02
2024-02-24T23:37:51.635Z,99243.41
2024-02-24T23:40:21.009Z,99242.96
2024-02-24T23:42:51.640Z,99241.89
2024-02-24T23:45:20.938Z,99243.56
2024-02-24T23:47:51.740Z,99245.44
2024-02-24T23:50:22.765Z,99241.20
2024-02-24T23:52:53.446Z,99237.62
2024-02-24T23:55:22.752Z,99239.70
2024-02-24T23:57:53.278Z,99242.71
